Tiempo atmosférico en la estación meteorológica de Villadepera, Zamora (790 m.)



Fecha
DESCASC
Temp. máxima en grados centígrados (hora)
DESCASC
Temp. mínima en grados centígrados (hora)
DESCASC
Temp. media en grados centígrados
DESCASC
Racha de viento máxima en m/sg (hora)
DESCASC
Velocidad máxima media en intervalos de 10 minutos(hora)
DESCASC
Precipitaciones diarias en mm
DESCASC
Precipitaciones de 00:00 a 06:00 en mm
DESCASC
Precipitaciones de 06:00 a 12:00 en mm
DESCASC
Precipitaciones de 12:00 a 18:00 en mm
DESCASC
Precipitaciones de 18:00 a 24:00 en mm
DESCASC
22-11-2020 14.8 (16:20) 3.6 (08:40) 9.2 5.83 (13:30) 4.17 (13:30) 0 0 0 0 0
21-11-2020 13.7 (16:00) 4.4 (03:10) 9 11.67 (03:50) 8.06 (04:20) 0 0 0 0 0
20-11-2020 11 (15:50) 4.7 (08:10) 7.8 12.22 (22:10) 8.61 (22:10) 0 0 0 0 0
19-11-2020 16 (14:50) 6.4 (00:00) 11.2 7.22 (15:00) 5.28 (13:50) 0 0 0 0 0
18-11-2020 16.5 (14:40) 5.6 (00:00) 11 4.44 (00:30) 3.89 (00:30) 0.2 0 0.2 0 0
17-11-2020 13.6 (15:10) 1.9 (00:00) 7.8 4.72 (14:00) 3.61 (11:30) 0 0 0 0 0
16-11-2020 14.8 (16:00) 8.3 (00:00) 11.6 8.61 (00:10) 6.67 (00:10) 0.2 0.2 0 0 0
15-11-2020 15.5 (14:30) 11.8 (00:00) 13.7 16.94 (14:30) 12.78 (12:20) 6.2 4 0 0 2.2
14-11-2020 13.9 (17:00) 6.1 (00:00) 10 9.44 (16:20) 7.22 (15:20) 0.2 0 0.2 0 0
13-11-2020 11.8 (16:20) 6.4 (00:00) 9.1 4.44 (18:00) 3.61 (18:00) 0.2 0.2 0 0 0
12-11-2020 8.7 (15:40) 4.4 (00:00) 6.5 4.72 (14:00) 3.06 (13:30) 0 0 0 0 0
11-11-2020 11 (16:10) 6.2 (00:00) 8.6 5.83 (01:40) 3.89 (01:40) 0.2 0 0 0.2 0
10-11-2020 7.9 (00:00) 4.8 (00:00) 6.4 6.11 (20:10) 4.17 (20:20) 0.4 0.2 0.2 0 0
09-11-2020 12.4 (16:40) 7.8 (00:00) 10.1 6.67 (11:30) 5.28 (12:50) 0.4 0 0.4 0 0
08-11-2020 12.2 (14:30) 8.4 (00:00) 10.3 13.33 (15:10) 8.89 (15:30) 10.4 0 1.4 7.2 1.8
07-11-2020 14 (14:40) 9.7 (00:00) 11.8 10.83 (10:30) 8.33 (10:30) 1.6 1 0.6 0 0
06-11-2020 16.7 (16:40) 8.9 (00:00) 12.8 16.11 (20:40) 10.83 (20:40) 2.2 1.6 0 0.2 0.4
05-11-2020 11.5 (16:00) 5 (00:00) 8.3 17.22 (01:10) 11.11 (01:10) 4.2 0 1 0.4 2.8
04-11-2020 9.4 (14:20) 3.9 (00:00) 6.6 20 (20:40) 12.78 (20:50) 0.4 0 0 0 0.4
03-11-2020 14 (15:00) 5.4 (00:00) 9.7 11.39 (20:50) 8.33 (21:00) 0 0 0 0 0
02-11-2020 17.4 (14:30) 11.6 (00:00) 14.5 7.5 (12:30) 5.83 (22:00) 0 0 0 0 0
01-11-2020 15.4 (15:40) 10 (00:00) 12.7 6.11 (13:30) 4.44 (13:00) 0 0 0 0 0
31-10-2020 17.6 (16:20) 8.3 (00:00) 13 9.17 (14:40) 6.67 (15:20) 0 0 0 0 0
30-10-2020 18.2 (16:40) 4.4 (00:00) 11.3 4.72 (13:00) 3.61 (12:50) 0 0 0 0 0
29-10-2020 14.2 (17:20) 4.7 (00:00) 9.4 5 (13:10) 3.33 (20:20) 0 0 0 0 0
28-10-2020 14.3 (14:50) 7.8 (00:00) 11.1 10.83 (04:10) 7.5 (04:10) 1.6 1.4 0.2 0 0
27-10-2020 11.2 (13:10) 5.7 (00:00) 8.4 12.78 (20:10) 8.89 (12:50) 0.4 0 0 0.2 0.2

Gráficas

Temp. máximas Temp. mínimas Temp. medias Precipitaciones Rachas de viento máximas Velocidades máximas media en intervalos de 10 minutos

Datos horarios

Fecha y hora oficial Temperatura (ºC) Velocidad del viento (km/h) Dirección del viento Racha (km/h) Dirección de racha Precipitación (mm) Presión (hPa) Tendencia (hPa) Humedad (%)
2020-11-25 23:00:00 7.3 9 Este 14 Este 0 -- -- 96
2020-11-25 22:00:00 7.2 9 Este 13 Este 0.2 -- -- 97
2020-11-25 21:00:00 7.2 10 Este 18 Este 0.2 -- -- 96
2020-11-25 20:00:00 7.1 13 Este 22 Este 0.2 -- -- 98
2020-11-25 19:00:00 6.7 14 Nordeste 25 Nordeste 0.2 -- -- 98
2020-11-25 18:00:00 6.4 13 Nordeste 23 Este 0.2 -- -- 99
2020-11-25 17:00:00 6.2 14 Este 19 Nordeste 0.4 -- -- 99
2020-11-25 16:00:00 6 13 Nordeste 18 Este 0.6 -- -- 98
2020-11-25 15:00:00 6.1 13 Este 17 Este 0.4 -- -- 98
2020-11-25 14:00:00 5.9 11 Este 15 Este 2.2 -- -- 99
2020-11-25 13:00:00 6 10 Este 17 Sudeste 1.8 -- -- 99
2020-11-25 12:00:00 6 11 Este 15 Este 1 -- -- 99
2020-11-25 11:00:00 5.4 9 Este 15 Este 1.2 -- -- 99
2020-11-25 10:00:00 4.9 10 Este 13 Este 1.2 -- -- 99
2020-11-25 09:00:00 4.9 10 Este 15 Este 1.6 -- -- 97
2020-11-25 08:00:00 5.2 9 Sudeste 12 Sudeste 1.4 -- -- 96
2020-11-25 07:00:00 5.2 8 Sudeste 13 Sudeste 0.4 -- -- 95
2020-11-25 06:00:00 6 6 Sudeste 10 Sur 0 -- -- 94
2020-11-25 05:00:00 5.9 5 Sudeste 10 Sudoeste 0 -- -- 95
2020-11-25 04:00:00 5.5 9 Sudoeste 17 Sudoeste 0 -- -- 96
2020-11-25 03:00:00 5 14 Sudoeste 19 Sudoeste 0 -- -- 96
2020-11-25 02:00:00 4.9 10 Sudoeste 17 Sudoeste 0 -- -- 96
2020-11-25 01:00:00 5.1 12 Sudoeste 17 Sudoeste 0 -- -- 95
2020-11-25 00:00:00 5.6 11 Sur 30 Sudoeste 0 -- -- 92
2020-11-24 23:00:00 6.3 19 Sudoeste 27 Sudoeste 0 -- -- 91
2020-11-24 22:00:00 6.7 17 Sudoeste 22 Sudoeste 0 -- -- 90
2020-11-24 21:00:00 6.4 13 Sudoeste 22 Sudoeste 0 -- -- 91
2020-11-24 20:00:00 7.3 8 Sudoeste 12 Sudoeste 0 -- -- 89
2020-11-24 19:00:00 7.8 10 Sudoeste 12 Sudoeste 0 -- -- 87
2020-11-24 18:00:00 9.2 4 Sudoeste 17 Oeste 0 -- -- 82
2020-11-24 17:00:00 10.4 14 Oeste 31 Sudoeste 0 -- -- 79
2020-11-24 16:00:00 10.9 20 Sudoeste 30 Sudoeste 0 -- -- 77
2020-11-24 15:00:00 10.7 23 Sudoeste 33 Sudoeste 0 -- -- 76
2020-11-24 14:00:00 10.6 17 Sudoeste 26 Sudoeste 0 -- -- 79
2020-11-24 13:00:00 9 19 Sudoeste 24 Sudoeste 0 -- -- 84
2020-11-24 12:00:00 7.4 17 Sudoeste 21 Sudoeste 0 -- -- 87
2020-11-24 11:00:00 6.2 14 Sudoeste 17 Sudoeste 0 -- -- 90
2020-11-24 10:00:00 5.4 12 Sudoeste 15 Sudoeste 0 -- -- 92
2020-11-24 09:00:00 3.7 7 Sudoeste 11 Sudoeste 0 -- -- 95
2020-11-24 08:00:00 3.6 5 Sudoeste 7 Sudoeste 0 -- -- 92
2020-11-24 07:00:00 3.9 3 Sudoeste 6 Sudoeste 0 -- -- 89
2020-11-24 06:00:00 4.2 4 Sudoeste 9 Sudoeste 0 -- -- 87
2020-11-24 05:00:00 4.3 8 Sudoeste 11 Sudoeste 0 -- -- 83
2020-11-24 04:00:00 5.2 5 Sudeste 5 Sudeste 0 -- -- 83
2020-11-24 03:00:00 5.9 3 Sudeste 5 Sudeste 0 -- -- 81
2020-11-24 02:00:00 6.9 2 Este -- -- 0 -- -- 78
2020-11-24 01:00:00 7 3 Este 4 Este 0 -- -- 77
2020-11-24 00:00:00 7 4 Este -- -- 0 -- -- 76
2020-11-23 23:00:00 7.8 4 Este -- -- 0 -- -- 73
2020-11-23 22:00:00 8.5 -- -- -- -- 0 -- -- 70
2020-11-23 21:00:00 8.7 3 Nordeste 5 Este 0 -- -- 69
2020-11-23 20:00:00 8.9 3 Nordeste 9 Sudeste 0 -- -- 68
2020-11-23 19:00:00 9.3 8 Sudeste 11 Sudeste 0 -- -- 67
2020-11-23 18:00:00 10.4 7 Este 9 Este 0 -- -- 63
2020-11-23 17:00:00 11.9 6 Este 8 Este 0 -- -- 60
2020-11-23 16:00:00 12.4 7 Este 16 Sudeste 0 -- -- 60
2020-11-23 15:00:00 12.6 11 Sudeste 18 Este 0 -- -- 60
2020-11-23 14:00:00 12.1 11 Este 16 Este 0 -- -- 61
2020-11-23 13:00:00 10.8 11 Este 18 Este 0 -- -- 68
2020-11-23 12:00:00 8.7 10 Este 16 Este 0 -- -- 76
2020-11-23 11:00:00 5.9 8 Este 12 Este 0 -- -- 89
2020-11-23 10:00:00 4 9 Este 14 Nordeste 0 -- -- 93
2020-11-23 09:00:00 2.6 10 Nordeste 13 Nordeste 0 -- -- 96
2020-11-23 08:00:00 2.5 6 Este 8 Nordeste 0 -- -- 93
2020-11-23 07:00:00 2.9 6 Este 12 Nordeste 0 -- -- 92
2020-11-23 06:00:00 3.4 10 Este 15 Nordeste 0 -- -- 92
2020-11-23 05:00:00 3.3 9 Nordeste 13 Nordeste 0 -- -- 94
2020-11-23 04:00:00 4.2 7 Este 9 Este 0 -- -- 89
2020-11-23 03:00:00 4.9 6 Este 9 Nordeste 0 -- -- 87
2020-11-23 02:00:00 6 4 Nordeste 7 Nordeste 0 -- -- 81
2020-11-23 01:00:00 7.8 4 Nordeste 6 Nordeste 0 -- -- 75
2020-11-23 00:00:00 7.7 4 Nordeste 7 Este 0 -- -- 74
2020-11-22 23:00:00 7.3 5 Este 6 Este 0 -- -- 76
2020-11-22 22:00:00 9.2 0 Calma 6 Norte 0 -- -- 68
2020-11-22 21:00:00 9.9 4 Noroeste 7 Noroeste 0 -- -- 64
2020-11-22 20:00:00 10.2 6 Oeste 8 Oeste 0 -- -- 63
2020-11-22 19:00:00 11.2 6 Oeste 7 Oeste 0 -- -- 60
2020-11-22 18:00:00 12.9 6 Oeste 8 Oeste 0 -- -- 58
2020-11-22 17:00:00 14.8 5 Oeste 13 Oeste 0 -- -- 56
2020-11-22 16:00:00 14.7 8 Sudoeste 17 Sudoeste 0 -- -- 54
2020-11-22 15:00:00 14.3 10 Sudoeste 19 Oeste 0 -- -- 56
2020-11-22 14:00:00 13.5 10 Sudoeste 21 Sudoeste 0 -- -- 60
2020-11-22 13:00:00 12.7 12 Sudoeste 20 Sudoeste 0 -- -- 61
2020-11-22 12:00:00 9.7 4 Sudeste 12 Sudeste 0 -- -- 66
2020-11-22 11:00:00 6.5 10 Sudeste 13 Sudeste 0 -- -- 75
2020-11-22 10:00:00 5 8 Sudeste 11 Sudeste 0 -- -- 78
2020-11-22 09:00:00 3.8 6 Este 8 Sudeste 0 -- -- 77
2020-11-22 08:00:00 3.8 5 Este 6 Este 0 -- -- 74
2020-11-22 07:00:00 4.7 4 Sudeste 6 Sur 0 -- -- 69
2020-11-22 06:00:00 4.9 3 Sur 4 Sur 0 -- -- 70
2020-11-22 05:00:00 5.1 2 Este 6 Este 0 -- -- 69
2020-11-22 04:00:00 4.9 5 Sudeste 8 Este 0 -- -- 67
2020-11-22 03:00:00 5 6 Este 9 Este 0 -- -- 66
2020-11-22 02:00:00 6.7 3 Este 7 Norte 0 -- -- 58
2020-11-22 01:00:00 7.2 7 Norte 8 Noroeste 0 -- -- 57
2020-11-22 00:00:00 7.4 2 Norte 3 Norte 0 -- -- 58
2020-11-21 23:00:00 7.9 2 Este 5 Sudeste 0 -- -- 57
2020-11-21 22:00:00 8 4 Este 5 Sudeste 0 -- -- 57
2020-11-21 21:00:00 8.2 4 Sudeste 10 Sudeste 0 -- -- 57
2020-11-21 20:00:00 9.3 7 Sudeste 8 Sudeste 0 -- -- 55
2020-11-21 19:00:00 9.9 7 Este 14 Este 0 -- -- 54
2020-11-21 18:00:00 11.1 9 Este 13 Este 0 -- -- 57
2020-11-21 17:00:00 13.3 10 Este 19 Este 0 -- -- 51
2020-11-21 16:00:00 13.7 12 Nordeste 22 Este 0 -- -- 44
2020-11-21 15:00:00 13.3 14 Este 22 Este 0 -- -- 43
2020-11-21 14:00:00 12.8 16 Este 25 Este 0 -- -- 37
2020-11-21 13:00:00 12 20 Nordeste 31 Nordeste 0 -- -- 38
2020-11-21 12:00:00 10.8 22 Este 33 Nordeste 0 -- -- 41
2020-11-21 11:00:00 9.7 17 Nordeste 30 Nordeste 0 -- -- 47
2020-11-21 10:00:00 7.5 17 Nordeste 28 Nordeste 0 -- -- 59
2020-11-21 09:00:00 4.9 15 Nordeste 33 Nordeste 0 -- -- 66
2020-11-21 08:00:00 4.6 21 Nordeste 31 Nordeste 0 -- -- 63
2020-11-21 07:00:00 4.4 18 Nordeste 30 Nordeste 0 -- -- 66
2020-11-21 06:00:00 4.7 19 Nordeste 37 Nordeste 0 -- -- 69
2020-11-21 05:00:00 4.9 17 Nordeste 40 Nordeste 0 -- -- 70
2020-11-21 04:00:00 4.8 22 Nordeste 42 Nordeste 0 -- -- 77
2020-11-21 03:00:00 4.5 16 Nordeste 33 Nordeste 0 -- -- 83
2020-11-21 02:00:00 4.6 18 Nordeste 38 Nordeste 0 -- -- 84
2020-11-21 01:00:00 5.4 22 Nordeste 34 Nordeste 0 -- -- 82
2020-11-21 00:00:00 6 23 Nordeste 41 Nordeste 0 -- -- 80
2020-11-20 23:00:00 7 24 Nordeste 44 Nordeste 0 -- -- 76
2020-11-20 22:00:00 7.7 26 Nordeste 40 Nordeste 0 -- -- 73
2020-11-20 21:00:00 7.6 23 Nordeste 39 Nordeste 0 -- -- 75
2020-11-20 20:00:00 7.9 19 Nordeste 33 Nordeste 0 -- -- 75
2020-11-20 19:00:00 8.2 14 Nordeste 24 Nordeste 0 -- -- 76
2020-11-20 18:00:00 9.2 14 Nordeste 31 Nordeste 0 -- -- 72
2020-11-20 17:00:00 10.6 18 Este 34 Nordeste 0 -- -- 68
2020-11-20 16:00:00 11 23 Nordeste 42 Nordeste 0 -- -- 65
2020-11-20 15:00:00 10.8 26 Nordeste 40 Nordeste 0 -- -- 65
2020-11-20 14:00:00 10.4 22 Nordeste 37 Nordeste 0 -- -- 65
2020-11-20 13:00:00 9.4 26 Nordeste 39 Este 0 -- -- 71
2020-11-20 12:00:00 8.4 28 Este 41 Este 0 -- -- 74
2020-11-20 11:00:00 7.7 26 Este 39 Nordeste 0 -- -- 81
2020-11-20 10:00:00 6.1 23 Nordeste 35 Nordeste 0 -- -- 90
2020-11-20 09:00:00 5.2 18 Nordeste 28 Nordeste 0 -- -- 92
2020-11-20 08:00:00 4.9 17 Nordeste 26 Nordeste 0 -- -- 92
2020-11-20 07:00:00 5.6 19 Nordeste 30 Nordeste 0 -- -- 89
2020-11-20 06:00:00 6.6 21 Nordeste 33 Nordeste 0 -- -- 90
2020-11-20 05:00:00 6.8 18 Nordeste 27 Nordeste 0 -- -- 94
2020-11-20 04:00:00 7.1 14 Nordeste 24 Nordeste 0 -- -- 95
2020-11-20 03:00:00 7.5 10 Nordeste 23 Este 0 -- -- 95
2020-11-20 02:00:00 7.6 15 Este 27 Nordeste 0 -- -- 95
2020-11-20 01:00:00 7.8 15 Nordeste 23 Nordeste 0 -- -- 96
2020-11-20 00:00:00 8.6 10 Nordeste 21 Este 0 -- -- 94
2020-11-19 23:00:00 9.6 9 Este 20 Este 0 -- -- 94
2020-11-19 22:00:00 10.5 13 Nordeste 19 Este 0 -- -- 92
2020-11-19 21:00:00 11.4 7 Este 11 Este 0 -- -- 90
2020-11-19 20:00:00 11.8 8 Este 9 Este 0 -- -- 88
2020-11-19 19:00:00 12.3 7 Nordeste 11 Nordeste 0 -- -- 87
2020-11-19 18:00:00 13.5 6 Este 11 Este 0 -- -- 82
2020-11-19 17:00:00 15.3 8 Este 13 Sudeste 0 -- -- 74
2020-11-19 16:00:00 15.9 8 Sudeste 16 Este 0 -- -- 75
2020-11-19 15:00:00 15.9 13 Sudeste 26 Sudeste 0 -- -- 75
2020-11-19 14:00:00 15.3 15 Este 24 Este 0 -- -- 78
2020-11-19 13:00:00 13.9 13 Este 23 Este 0 -- -- 84
2020-11-19 12:00:00 12 17 Este 23 Este 0 -- -- 91
2020-11-19 11:00:00 10.5 11 Este 16 Este 0 -- -- 97
2020-11-19 10:00:00 8.8 12 Este 18 Nordeste 0 -- -- 100
2020-11-19 09:00:00 6.8 8 Este 10 Este 0 -- -- 100
2020-11-19 08:00:00 6.4 9 Este 12 Este 0 -- -- 99
2020-11-19 07:00:00 7.2 8 Este 12 Este 0 -- -- 99
2020-11-19 06:00:00 7.2 6 Este 8 Este 0 -- -- 98
2020-11-19 05:00:00 7.5 7 Este 9 Este 0 -- -- 97
2020-11-19 04:00:00 8.2 6 Este 10 Este 0 -- -- 98
2020-11-19 03:00:00 8.6 8 Este 13 Este 0 -- -- 97
2020-11-19 02:00:00 8.9 9 Sudeste 11 Sudeste 0 -- -- 95
2020-11-19 01:00:00 10.5 8 Nordeste 10 Este 0 -- -- 91
2020-11-19 00:00:00 11.2 4 Nordeste 6 Nordeste 0 -- -- 90
2020-11-18 23:00:00 11.4 5 Nordeste 6 Nordeste 0 -- -- 90
2020-11-18 22:00:00 11.9 5 Nordeste 6 Este 0 -- -- 88
2020-11-18 21:00:00 12.3 5 Este 8 Este 0 -- -- 87
2020-11-18 20:00:00 12.4 6 Este 10 Sudeste 0 -- -- 86
2020-11-18 19:00:00 13.1 8 Sudeste 10 Sudeste 0 -- -- 84
2020-11-18 18:00:00 14.5 6 Este 8 Este 0 -- -- 79
2020-11-18 17:00:00 15.5 5 Sudeste 11 Sudeste 0 -- -- 77
2020-11-18 16:00:00 16.1 7 Este 12 Este 0 -- -- 74
2020-11-18 15:00:00 16.2 2 Este 8 Este 0 -- -- 71
2020-11-18 14:00:00 15.5 4 Este 12 Este 0 -- -- 73
2020-11-18 13:00:00 14.3 6 Este 10 Este 0 -- -- 78
2020-11-18 12:00:00 12.2 7 Este 10 Este 0 -- -- 87
2020-11-18 11:00:00 9.9 6 Este 10 Este 0 -- -- 94
2020-11-18 10:00:00 7.3 6 Este 10 Este 0 -- -- 96
2020-11-18 09:00:00 6.2 7 Este 9 Este 0.2 -- -- 98
2020-11-18 08:00:00 5.8 6 Este 10 Este 0 -- -- 98
2020-11-18 07:00:00 6.7 7 Este 9 Este 0 -- -- 97
2020-11-18 06:00:00 7.3 3 Nordeste 5 Sudoeste 0 -- -- 97
2020-11-18 05:00:00 6.6 2 Sur 8 Sur 0 -- -- 96
2020-11-18 04:00:00 7.4 3 Sur 9 Sur 0 -- -- 93
2020-11-18 03:00:00 8.1 0 Calma 3 Sur 0 -- -- 94
2020-11-18 02:00:00 8 5 Oeste 14 Sudoeste 0 -- -- 91
2020-11-18 01:00:00 8.6 12 Sudoeste 16 Sudoeste 0 -- -- 89
2020-11-18 00:00:00 6.9 7 Oeste 10 Sudoeste 0 -- -- 99
2020-11-17 23:00:00 5.7 6 Sudoeste 8 Sudoeste 0 -- -- 100
2020-11-17 22:00:00 5.5 0 Calma 4 Este 0 -- -- 100
2020-11-17 21:00:00 5.8 3 Este 6 Nordeste 0 -- -- 99
2020-11-17 20:00:00 6.9 3 Este 8 Este 0 -- -- 98
2020-11-17 19:00:00 7.5 6 Sudeste 9 Este 0 -- -- 98
2020-11-17 18:00:00 9 5 Este 8 Sudeste 0 -- -- 93
2020-11-17 17:00:00 11.4 5 Este 11 Sudeste 0 -- -- 87
2020-11-17 16:00:00 13.2 8 Sudeste 15 Este 0 -- -- 84
2020-11-17 15:00:00 13.5 9 Sudeste 14 Sudeste 0 -- -- 82
2020-11-17 14:00:00 12.6 10 Este 17 Este 0 -- -- 86
2020-11-17 13:00:00 10.8 9 Este 15 Este 0 -- -- 96
2020-11-17 12:00:00 8.2 12 Este 16 Este 0 -- -- 100
2020-11-17 11:00:00 6.2 9 Este 13 Nordeste 0 -- -- 100
2020-11-17 10:00:00 4 8 Este 11 Este 0 -- -- 100
2020-11-17 09:00:00 3.6 7 Este 13 Este 0 -- -- 100
2020-11-17 08:00:00 2.5 10 Este 12 Este 0 -- -- 98
2020-11-17 07:00:00 4.7 8 Este 12 Este 0 -- -- 98
2020-11-17 06:00:00 5.1 9 Este 10 Este 0 -- -- 97
2020-11-17 05:00:00 5.8 7 Este 12 Nordeste 0 -- -- 97
2020-11-17 04:00:00 6.5 8 Nordeste 11 Nordeste 0 -- -- 96
2020-11-17 03:00:00 7 8 Nordeste 9 Nordeste 0 -- -- 95
2020-11-17 02:00:00 7.7 5 Nordeste 8 Este 0 -- -- 93
2020-11-17 01:00:00 8.2 6 Este 9 Este 0 -- -- 92
2020-11-17 00:00:00 8.4 6 Este 8 Este 0 -- -- 93
2020-11-16 23:00:00 8.8 6 Este 8 Este 0 -- -- 91
2020-11-16 22:00:00 9.4 6 Este 9 Sudeste 0 -- -- 88
2020-11-16 21:00:00 9.7 5 Sudeste 10 Este 0 -- -- 88
2020-11-16 20:00:00 10.1 8 Este 9 Este 0 -- -- 86
2020-11-16 19:00:00 11.2 6 Este 8 Este 0 -- -- 83
2020-11-16 18:00:00 12.6 5 Este 11 Sudeste 0 -- -- 78
2020-11-16 17:00:00 14.4 6 Este 8 Este 0 -- -- 73
2020-11-16 16:00:00 14.8 0 Calma 9 Norte 0 -- -- 68
2020-11-16 15:00:00 14 3 Nordeste 11 Nordeste 0 -- -- 74
2020-11-16 14:00:00 13.4 3 Norte 10 Nordeste 0 -- -- 77
2020-11-16 13:00:00 12.8 5 Nordeste 13 Norte 0 -- -- 82
2020-11-16 12:00:00 11.7 2 Sudoeste 8 Nordeste 0 -- -- 90
2020-11-16 11:00:00 10.9 4 Oeste 10 Oeste 0 -- -- 88
2020-11-16 10:00:00 9.9 4 Oeste 14 Sudoeste 0 -- -- 93
2020-11-16 09:00:00 9.6 5 Oeste 12 Sudoeste 0 -- -- 98
2020-11-16 08:00:00 9.5 9 Noroeste 15 Oeste 0 -- -- 98
2020-11-16 07:00:00 10 16 Oeste 23 Oeste 0 -- -- 98
2020-11-16 06:00:00 9.7 17 Oeste 24 Oeste 0 -- -- 98
2020-11-16 05:00:00 10.5 18 Oeste 25 Oeste 0 -- -- 98
2020-11-16 04:00:00 11.3 16 Oeste 23 Oeste 0 -- -- 99
2020-11-16 03:00:00 11.4 9 Sudoeste 23 Oeste 0.2 -- -- 99
2020-11-16 02:00:00 11.9 19 Oeste 24 Oeste 0 -- -- 98
2020-11-16 01:00:00 12.2 12 Oeste 31 Oeste 0 -- -- 99
2020-11-16 00:00:00 12.8 22 Oeste 30 Oeste 0 -- -- 98
2020-11-15 23:00:00 13.2 21 Oeste 27 Oeste 0 -- -- 99
2020-11-15 22:00:00 13.4 21 Oeste 33 Oeste 0.2 -- -- 99
2020-11-15 21:00:00 13.4 22 Sudoeste 36 Sudoeste 2 -- -- 98
2020-11-15 20:00:00 14 30 Sudoeste 48 Sudoeste 0 -- -- 93
2020-11-15 19:00:00 14.1 30 Sudoeste 47 Sudoeste 0 -- -- 92
2020-11-15 18:00:00 14.1 28 Sudoeste 56 Sudoeste 0 -- -- 92
2020-11-15 17:00:00 14.7 36 Sudoeste 50 Sudoeste 0 -- -- 89
2020-11-15 16:00:00 15.1 37 Sudoeste 58 Sudoeste 0 -- -- 87
2020-11-15 15:00:00 15.2 41 Sudoeste 61 Sudoeste 0 -- -- 87
2020-11-15 14:00:00 15.2 36 Sudoeste 58 Sudoeste 0 -- -- 87
2020-11-15 13:00:00 14.8 37 Sudoeste 60 Sudoeste 0 -- -- 90
2020-11-15 12:00:00 14.7 41 Sudoeste 56 Sudoeste 0 -- -- 92
2020-11-15 11:00:00 13.9 37 Sudoeste 51 Sudoeste 0 -- -- 96
2020-11-15 10:00:00 13.6 32 Sudoeste 49 Sudoeste 0 -- -- 97
2020-11-15 09:00:00 13.3 35 Sudoeste 47 Sudoeste 0 -- -- 98
2020-11-15 08:00:00 12.9 26 Sudoeste 39 Sudoeste 0 -- -- 99
2020-11-15 07:00:00 12.7 25 Sudoeste 41 Sudoeste 0 -- -- 99
2020-11-15 06:00:00 12.6 30 Sudoeste 46 Sudoeste 0.2 -- -- 98
2020-11-15 05:00:00 12.3 28 Sudoeste 38 Sur 2.6 -- -- 98
2020-11-15 04:00:00 12.1 25 Sudoeste 32 Sudoeste 1.2 -- -- 98
2020-11-15 03:00:00 12.2 23 Sudoeste 41 Sudoeste 0 -- -- 95
2020-11-15 02:00:00 12.2 24 Sudoeste 32 Sudoeste 0 -- -- 95
2020-11-15 01:00:00 11.9 18 Sudoeste 30 Sudoeste 0 -- -- 94
2020-11-15 00:00:00 11.9 21 Sudoeste 32 Sudoeste 0 -- -- 94
2020-11-14 23:00:00 11.8 17 Sudoeste 25 Sudoeste 0 -- -- 95
2020-11-14 22:00:00 11.6 13 Sudoeste 21 Sudoeste 0 -- -- 96
2020-11-14 21:00:00 12 14 Sudoeste 33 Sudoeste 0 -- -- 95
2020-11-14 20:00:00 12.8 21 Sudoeste 31 Sur 0 -- -- 92
2020-11-14 19:00:00 12.8 17 Sudoeste 24 Sudoeste 0 -- -- 93
2020-11-14 18:00:00 13.3 15 Sudoeste 24 Sudoeste 0 -- -- 91
2020-11-14 17:00:00 13.9 21 Sudoeste 34 Sudoeste 0 -- -- 89
2020-11-14 16:00:00 13.5 23 Sudoeste 33 Sudoeste 0 -- -- 92
2020-11-14 15:00:00 13.4 23 Sudoeste 33 Sudoeste 0 -- -- 90
2020-11-14 14:00:00 12.3 16 Sudoeste 31 Sudoeste 0 -- -- 100
2020-11-14 13:00:00 11.3 7 Sur 15 Sur 0 -- -- 100
2020-11-14 12:00:00 9 6 Sudeste 9 Sudeste 0 -- -- 100
2020-11-14 11:00:00 8 3 Sudeste 6 Este 0 -- -- 100
2020-11-14 10:00:00 7.3 0 Calma 6 Sudeste 0 -- -- 100
2020-11-14 09:00:00 6.8 4 Sudeste 9 Sudeste 0 -- -- 100
2020-11-14 08:00:00 6.7 5 Este 10 Sudeste 0.2 -- -- 100
2020-11-14 07:00:00 6.8 4 Este 9 Nordeste 0 -- -- 100
2020-11-14 06:00:00 6.7 6 Nordeste 11 Este 0 -- -- 100
2020-11-14 05:00:00 6.7 7 Este 11 Este 0 -- -- 100
2020-11-14 04:00:00 6.4 8 Nordeste 10 Este 0 -- -- 100
2020-11-14 03:00:00 6.3 5 Sudeste 8 Sudeste 0 -- -- 100
2020-11-14 02:00:00 6.4 6 Este 8 Nordeste 0 -- -- 100
2020-11-14 01:00:00 6.7 5 Este 8 Este 0 -- -- 100
2020-11-14 00:00:00 6.6 3 Nordeste 7 Este 0 -- -- 100
2020-11-13 23:00:00 6.9 3 Sudeste 6 Este 0 -- -- 100
2020-11-13 22:00:00 7.1 4 Este 10 Este 0 -- -- 100
2020-11-13 21:00:00 7.2 7 Este 12 Este 0 -- -- 100
2020-11-13 20:00:00 7.5 6 Este 11 Este 0 -- -- 99
2020-11-13 19:00:00 8.1 10 Este 14 Este 0 -- -- 98
2020-11-13 18:00:00 9.7 13 Sudeste 16 Sudeste 0 -- -- 95
2020-11-13 17:00:00 11.6 5 Este 8 Este 0 -- -- 93
2020-11-13 16:00:00 11.4 3 Sudeste 8 Este 0 -- -- 100
2020-11-13 15:00:00 10.1 3 Nordeste 9 Nordeste 0 -- -- 100
2020-11-13 14:00:00 9.2 4 Nordeste 14 Nordeste 0 -- -- 100
2020-11-13 13:00:00 8.4 9 Este 15 Este 0 -- -- 100
2020-11-13 12:00:00 7.8 8 Este 13 Este 0 -- -- 100
2020-11-13 11:00:00 7.1 7 Este 13 Este 0 -- -- 100
2020-11-13 10:00:00 6.6 9 Sudeste 14 Este 0 -- -- 100
2020-11-13 09:00:00 6.6 7 Este 10 Este 0 -- -- 100
2020-11-13 08:00:00 6.5 5 Este 9 Este 0 -- -- 100
2020-11-13 07:00:00 6.6 5 Este 10 Este 0 -- -- 100
2020-11-13 06:00:00 6.8 7 Este 11 Este 0.2 -- -- 100
2020-11-13 05:00:00 6.9 7 Este 12 Este 0 -- -- 100
2020-11-13 04:00:00 6.9 8 Este 12 Este 0 -- -- 100
2020-11-13 03:00:00 6.8 7 Este 12 Este 0 -- -- 100
2020-11-13 02:00:00 7 7 Nordeste 10 Nordeste 0 -- -- 100
2020-11-13 01:00:00 7.2 8 Este 10 Este 0 -- -- 100
2020-11-13 00:00:00 7.3 5 Este 9 Este 0 -- -- 100
2020-11-12 23:00:00 7.5 5 Nordeste 6 Nordeste 0 -- -- 100
2020-11-12 22:00:00 7.7 3 Este 7 Nordeste 0 -- -- 100
2020-11-12 21:00:00 7.9 4 Nordeste 9 Nordeste 0 -- -- 100
2020-11-12 20:00:00 8 6 Este 11 Nordeste 0 -- -- 100
2020-11-12 19:00:00 8.3 6 Nordeste 13 Este 0 -- -- 100
2020-11-12 18:00:00 8.4 9 Este 14 Este 0 -- -- 100
2020-11-12 17:00:00 8.7 8 Este 14 Este 0 -- -- 100
2020-11-12 16:00:00 8.7 7 Nordeste 12 Nordeste 0 -- -- 100
2020-11-12 15:00:00 8.6 5 Nordeste 15 Este 0 -- -- 100
2020-11-12 14:00:00 8.5 11 Este 17 Este 0 -- -- 100
2020-11-12 13:00:00 8.5 11 Este 15 Este 0 -- -- 100
2020-11-12 12:00:00 8 10 Este 14 Este 0 -- -- 100
2020-11-12 11:00:00 7.1 8 Este 13 Este 0 -- -- 100
2020-11-12 10:00:00 6.4 9 Este 12 Este 0 -- -- 100
2020-11-12 09:00:00 4.8 5 Este 9 Nordeste 0 -- -- 100
2020-11-12 08:00:00 4.5 7 Nordeste 9 Nordeste 0 -- -- 100
2020-11-12 07:00:00 5.5 5 Nordeste 6 Este 0 -- -- 100
2020-11-12 06:00:00 5.7 5 Este 6 Este 0 -- -- 98
2020-11-12 05:00:00 6.5 5 Este 6 Este 0 -- -- 99
2020-11-12 04:00:00 7.6 2 Sur 6 Sudoeste 0 -- -- 97
2020-11-12 03:00:00 7.8 3 Sur 6 Sur 0 -- -- 99
2020-11-12 02:00:00 7.8 2 Sudeste 5 Este 0 -- -- 98
2020-11-12 01:00:00 8.2 3 Sudoeste 5 Sudoeste 0 -- -- 98
2020-11-12 00:00:00 8.3 4 Sudeste 6 Sudeste 0 -- -- 97
2020-11-11 23:00:00 8.5 4 Sudeste 5 Sudeste 0 -- -- 98
2020-11-11 22:00:00 8.5 4 Sur 12 Sudeste 0 -- -- 97
2020-11-11 21:00:00 8.5 8 Este 11 Sudeste 0 -- -- 97
2020-11-11 20:00:00 8.7 7 Sudeste 16 Sudeste 0 -- -- 96
2020-11-11 19:00:00 9.4 6 Sudeste 10 Sudeste 0 -- -- 95
2020-11-11 18:00:00 10.1 3 Sur 9 Oeste 0 -- -- 92
2020-11-11 17:00:00 10.9 6 Oeste 9 Sudoeste 0 -- -- 90
2020-11-11 16:00:00 10.9 6 Sudoeste 15 Sudoeste 0 -- -- 92
2020-11-11 15:00:00 10.3 10 Sur 14 Sudoeste 0 -- -- 98
2020-11-11 14:00:00 8.9 5 Sudeste 11 Sudeste 0 -- -- 100
2020-11-11 13:00:00 8.7 6 Sur 9 Sudeste 0.2 -- -- 100
2020-11-11 12:00:00 7.7 0 Calma 12 Este 0 -- -- 100
2020-11-11 11:00:00 7.1 10 Sudeste 13 Este 0 -- -- 100
2020-11-11 10:00:00 7 8 Nordeste 13 Este 0 -- -- 100
2020-11-11 09:00:00 6.7 5 Nordeste 12 Nordeste 0 -- -- 100
2020-11-11 08:00:00 6.6 8 Este 15 Este 0 -- -- 100
2020-11-11 07:00:00 6.6 9 Este 18 Este 0 -- -- 100
2020-11-11 06:00:00 6.5 12 Este 16 Este 0 -- -- 100
2020-11-11 05:00:00 6.8 11 Este 19 Este 0 -- -- 100
2020-11-11 04:00:00 6.8 12 Este 19 Este 0 -- -- 100
2020-11-11 03:00:00 6.7 12 Este 18 Este 0 -- -- 100
2020-11-11 02:00:00 6.6 11 Este 21 Este 0 -- -- 100
2020-11-11 01:00:00 6.3 12 Este 18 Este 0 -- -- 100
2020-11-11 00:00:00 6.5 9 Este 20 Nordeste 0 -- -- 100
2020-11-10 23:00:00 6.4 12 Este 20 Este 0 -- -- 100
2020-11-10 22:00:00 6.1 14 Este 20 Este 0 -- -- 100
2020-11-10 21:00:00 6.1 14 Este 22 Este 0 -- -- 100
2020-11-10 20:00:00 6.3 15 Este 21 Este 0 -- -- 100
2020-11-10 19:00:00 6.7 14 Este 20 Este 0 -- -- 100
2020-11-10 18:00:00 6.8 10 Nordeste 16 Nordeste 0 -- -- 100
2020-11-10 17:00:00 7.2 10 Este 15 Este 0 -- -- 100
2020-11-10 16:00:00 7.5 9 Este 13 Nordeste 0 -- -- 100
2020-11-10 15:00:00 7.4 8 Este 17 Este 0 -- -- 100
2020-11-10 14:00:00 7.6 10 Este 15 Este 0 -- -- 100
2020-11-10 13:00:00 7.2 9 Nordeste 16 Este 0 -- -- 100
2020-11-10 12:00:00 7.3 8 Nordeste 14 Este 0 -- -- 100
2020-11-10 11:00:00 6.9 10 Este 16 Nordeste 0 -- -- 100
2020-11-10 10:00:00 6.3 2 Este 6 Este 0 -- -- 100
2020-11-10 09:00:00 5.6 0 Calma 5 Nordeste 0 -- -- 100
2020-11-10 08:00:00 5.8 2 Nordeste 7 Sudeste 0 -- -- 100
2020-11-10 07:00:00 5 4 Sudeste 6 Sudeste 0.2 -- -- 100
2020-11-10 06:00:00 5.6 0 Calma 5 Noroeste 0 -- -- 100
2020-11-10 05:00:00 6.2 3 Oeste 7 Oeste 0 -- -- 100
2020-11-10 04:00:00 6.6 5 Oeste 9 Sudoeste 0 -- -- 100
2020-11-10 03:00:00 6.5 0 Calma 8 Oeste 0.2 -- -- 99
2020-11-10 02:00:00 7.2 6 Oeste 9 Noroeste 0 -- -- 99
2020-11-10 01:00:00 7 6 Oeste 12 Oeste 0 -- -- 98
2020-11-10 00:00:00 7.9 7 Oeste 15 Oeste 0 -- -- 98
2020-11-09 23:00:00 8.1 11 Oeste 13 Oeste 0 -- -- 98
2020-11-09 22:00:00 8.3 9 Oeste 15 Sudoeste 0 -- -- 97
2020-11-09 21:00:00 8.7 9 Sudoeste 11 Oeste 0 -- -- 96
2020-11-09 20:00:00 9 9 Oeste 10 Sudoeste 0 -- -- 96
2020-11-09 19:00:00 10.1 8 Sudoeste 11 Sudoeste 0 -- -- 94
2020-11-09 18:00:00 11.3 8 Sudoeste 14 Sudoeste 0 -- -- 90
2020-11-09 17:00:00 12.3 11 Sudoeste 17 Sudoeste 0 -- -- 86
2020-11-09 16:00:00 11.9 13 Sudoeste 16 Sudoeste 0 -- -- 88
2020-11-09 15:00:00 11.4 11 Sudoeste 17 Sudoeste 0 -- -- 89
2020-11-09 14:00:00 11 15 Sudoeste 24 Sudoeste 0 -- -- 90
2020-11-09 13:00:00 11.3 19 Sudoeste 24 Sudoeste 0 -- -- 92
2020-11-09 12:00:00 10.8 17 Sudoeste 24 Sudoeste 0 -- -- 96
2020-11-09 11:00:00 9.9 15 Sudoeste 20 Sudoeste 0.4 -- -- 99
2020-11-09 10:00:00 9.7 11 Sudoeste 21 Sudoeste 0 -- -- 100
2020-11-09 09:00:00 8.9 8 Sudoeste 16 Sudoeste 0 -- -- 100
2020-11-09 08:00:00 8.7 11 Sudoeste 20 Sudoeste 0 -- -- 100
2020-11-09 07:00:00 8.6 9 Sudoeste 14 Sudoeste 0 -- -- 100
2020-11-09 06:00:00 8.8 9 Oeste 17 Sudoeste 0 -- -- 99
2020-11-09 05:00:00 9.1 11 Oeste 18 Sudoeste 0 -- -- 99
2020-11-09 04:00:00 8.5 7 Sudoeste 12 Sudoeste 0 -- -- 99
2020-11-09 03:00:00 8.5 3 Sur 10 Sudoeste 0 -- -- 99
2020-11-09 02:00:00 8.8 8 Sudoeste 14 Sudoeste 0 -- -- 98
2020-11-09 01:00:00 9.1 8 Sudoeste 13 Sudoeste 0 -- -- 98
2020-11-09 00:00:00 9.1 8 Sur 16 Sur 0 -- -- 97
2020-11-08 23:00:00 9.5 11 Sur 16 Sur 0 -- -- 97
2020-11-08 22:00:00 10 12 Sur 19 Sur 0 -- -- 97
2020-11-08 21:00:00 10.1 13 Sur 22 Sudoeste 0 -- -- 97
2020-11-08 20:00:00 10.2 18 Sur 34 Sur 0.8 -- -- 96
2020-11-08 19:00:00 10.4 21 Sudoeste 39 Sudoeste 1 -- -- 94
2020-11-08 18:00:00 10.3 8 Sudeste 27 Sudoeste 0.4 -- -- 95
2020-11-08 17:00:00 10.3 24 Sudoeste 39 Sur 0.2 -- -- 94
2020-11-08 16:00:00 10.7 20 Sur 48 Sur 1.2 -- -- 90
2020-11-08 15:00:00 12.1 23 Sudoeste 38 Sur 0 -- -- 88
2020-11-08 14:00:00 11.9 15 Sur 31 Sur 0 -- -- 93
2020-11-08 13:00:00 10.2 8 Sudoeste 31 Oeste 5.4 -- -- 96
2020-11-08 12:00:00 11.5 18 Sudoeste 30 Sur 1 -- -- 92
2020-11-08 11:00:00 11.4 22 Sur 33 Sur 0.4 -- -- 89
2020-11-08 10:00:00 11.2 21 Sur 31 Sur 0 -- -- 85
2020-11-08 09:00:00 9.3 12 Sudeste 19 Sudeste 0 -- -- 93
2020-11-08 08:00:00 8.4 11 Este 22 Sudeste 0 -- -- 95
2020-11-08 07:00:00 8.7 12 Sudeste 17 Sudeste 0 -- -- 95
2020-11-08 06:00:00 9 8 Sur 27 Sudoeste 0 -- -- 94
2020-11-08 05:00:00 9.5 21 Sur 33 Sur 0 -- -- 93
2020-11-08 04:00:00 9.4 16 Sur 23 Sur 0 -- -- 91
2020-11-08 03:00:00 9.5 10 Sur 20 Sur 0 -- -- 91
2020-11-08 02:00:00 9.1 10 Sur 17 Sur 0 -- -- 91
2020-11-08 01:00:00 9.3 10 Sur 16 Sur 0 -- -- 92
2020-11-08 00:00:00 9.7 12 Sur 18 Sur 0 -- -- 89
2020-11-07 23:00:00 10.5 11 Sur 24 Sudoeste 0 -- -- 87
2020-11-07 22:00:00 11.1 14 Sudoeste 32 Sudoeste 0 -- -- 84
2020-11-07 21:00:00 11.5 21 Sudoeste 32 Sudoeste 0 -- -- 83
2020-11-07 20:00:00 11.8 19 Sudoeste 31 Sudoeste 0 -- -- 80
2020-11-07 19:00:00 12 21 Sudoeste 34 Sudoeste 0 -- -- 78
2020-11-07 18:00:00 12.6 21 Sudoeste 35 Sudoeste 0 -- -- 77
2020-11-07 17:00:00 13.2 22 Sudoeste 32 Sudoeste 0 -- -- 74
2020-11-07 16:00:00 13.3 20 Sudoeste 34 Sudoeste 0 -- -- 76
2020-11-07 15:00:00 13.6 22 Sudoeste 38 Sudoeste 0 -- -- 72
2020-11-07 14:00:00 13.6 25 Sudoeste 37 Sudoeste 0 -- -- 77
2020-11-07 13:00:00 13.5 24 Sudoeste 32 Sudoeste 0 -- -- 77
2020-11-07 12:00:00 11.2 20 Sudoeste 35 Sudoeste 0 -- -- 90
2020-11-07 11:00:00 11 27 Sudoeste 39 Sudoeste 0 -- -- 94
2020-11-07 10:00:00 10.4 21 Sudoeste 28 Sudoeste 0 -- -- 98
2020-11-07 09:00:00 9.7 10 Sudoeste 20 Sudoeste 0 -- -- 98
2020-11-07 08:00:00 9.9 6 Sudoeste 15 Sudoeste 0 -- -- 98
2020-11-07 07:00:00 10 10 Sudoeste 14 Sudoeste 0.6 -- -- 97
2020-11-07 06:00:00 10.1 3 Sur 5 Sudoeste 0.2 -- -- 96
2020-11-07 05:00:00 9.9 4 Sudeste 10 Sudeste 0 -- -- 96
2020-11-07 04:00:00 10.1 6 Sudeste 12 Este 0.2 -- -- 96
2020-11-07 03:00:00 10.1 8 Sudeste 10 Sudeste 0 -- -- 96
2020-11-07 02:00:00 10.1 4 Este 10 Sudeste 0 -- -- 95
2020-11-07 01:00:00 10.2 5 Sur 20 Sur 0.6 -- -- 94
2020-11-07 00:00:00 10.7 11 Sur 23 Sur 0 -- -- 90
2020-11-06 23:00:00 10.7 13 Sur 30 Sur 0 -- -- 89
2020-11-06 22:00:00 11 18 Sur 56 Sur 0.2 -- -- 86
2020-11-06 21:00:00 12.1 37 Sur 58 Sur 0 -- -- 80
2020-11-06 20:00:00 13.7 30 Sur 50 Sur 0.2 -- -- 76
2020-11-06 19:00:00 15.7 29 Sudeste 44 Sudeste 0 -- -- 66
2020-11-06 18:00:00 15.7 28 Sudeste 37 Sudeste 0 -- -- 78
2020-11-06 17:00:00 16.4 22 Sudeste 38 Sudeste 0 -- -- 73
2020-11-06 16:00:00 16.5 15 Este 29 Este 0 -- -- 75
2020-11-06 15:00:00 15.3 21 Este 44 Este 0 -- -- 80
2020-11-06 14:00:00 14.1 27 Este 45 Este 0 -- -- 81
2020-11-06 13:00:00 12.5 30 Este 57 Este 0.2 -- -- 84
2020-11-06 12:00:00 12.8 31 Este 42 Este 0 -- -- 83
2020-11-06 11:00:00 11.5 21 Este 32 Este 0 -- -- 88
2020-11-06 10:00:00 10.6 13 Este 19 Este 0 -- -- 91
2020-11-06 09:00:00 10 16 Sudeste 22 Sudeste 0 -- -- 92
2020-11-06 08:00:00 9.7 11 Este 30 Sudeste 0 -- -- 93
2020-11-06 07:00:00 9.3 12 Este 18 Este 0 -- -- 93
2020-11-06 06:00:00 9.5 12 Este 26 Sudeste 0 -- -- 91
2020-11-06 05:00:00 9.8 16 Sudeste 28 Este 0 -- -- 93
2020-11-06 04:00:00 9.8 16 Sur 37 Sudeste 1.4 -- -- 95
2020-11-06 03:00:00 9.5 21 Este 33 Este 0.2 -- -- 96
2020-11-06 02:00:00 9.1 19 Este 32 Este 0 -- -- 96
2020-11-06 01:00:00 9 18 Este 29 Este 0 -- -- 95
2020-11-06 00:00:00 9.1 18 Este 30 Este 0 -- -- 95
2020-11-05 23:00:00 9.7 19 Este 30 Este 0 -- -- 96
2020-11-05 22:00:00 10 18 Este 41 Este 1.8 -- -- 97
2020-11-05 21:00:00 10.1 22 Este 39 Este 0.6 -- -- 96
2020-11-05 20:00:00 10.4 20 Este 42 Este 0.4 -- -- 94
2020-11-05 19:00:00 10.5 24 Este 41 Este 0 -- -- 92
2020-11-05 18:00:00 10.7 22 Nordeste 35 Este 0.2 -- -- 92
2020-11-05 17:00:00 11.4 22 Nordeste 38 Nordeste 0.2 -- -- 87
2020-11-05 16:00:00 11.5 30 Nordeste 42 Nordeste 0 -- -- 83
2020-11-05 15:00:00 11.2 26 Nordeste 45 Nordeste 0 -- -- 84
2020-11-05 14:00:00 10.6 22 Nordeste 43 Nordeste 0 -- -- 88
2020-11-05 13:00:00 9.3 27 Nordeste 42 Nordeste 0 -- -- 91
2020-11-05 12:00:00 8 28 Nordeste 45 Nordeste 0 -- -- 94
2020-11-05 11:00:00 7.3 26 Nordeste 44 Nordeste 0.2 -- -- 96
2020-11-05 10:00:00 6.6 33 Nordeste 49 Nordeste 0.8 -- -- 97
2020-11-05 09:00:00 6.5 31 Nordeste 47 Nordeste 0 -- -- 93
2020-11-05 08:00:00 6.5 31 Nordeste 57 Nordeste 0 -- -- 91
2020-11-05 07:00:00 6 33 Nordeste 50 Nordeste 0 -- -- 92
2020-11-05 06:00:00 6 31 Nordeste 50 Nordeste 0 -- -- 91
2020-11-05 05:00:00 5.9 33 Nordeste 55 Nordeste 0 -- -- 90
2020-11-05 04:00:00 5.6 34 Nordeste 51 Nordeste 0 -- -- 89
2020-11-05 03:00:00 5.2 31 Nordeste 48 Nordeste 0 -- -- 88
2020-11-05 02:00:00 5 34 Nordeste 62 Nordeste 0 -- -- 88
2020-11-05 01:00:00 5.3 35 Nordeste 59 Nordeste 0 -- -- 86
2020-11-05 00:00:00 5.7 33 Nordeste 60 Este 0 -- -- 84
2020-11-04 23:00:00 5.6 37 Nordeste 61 Nordeste 0 -- -- 85
2020-11-04 22:00:00 5.5 43 Nordeste 66 Nordeste 0 -- -- 84
2020-11-04 21:00:00 5.6 42 Nordeste 72 Nordeste 0 -- -- 83
2020-11-04 20:00:00 5.4 40 Nordeste 63 Nordeste 0.2 -- -- 89
2020-11-04 19:00:00 6 34 Nordeste 60 Nordeste 0.2 -- -- 84
2020-11-04 18:00:00 8 32 Nordeste 62 Nordeste 0 -- -- 65
2020-11-04 17:00:00 8.4 42 Nordeste 62 Nordeste 0 -- -- 61
2020-11-04 16:00:00 9.1 41 Nordeste 64 Nordeste 0 -- -- 63
2020-11-04 15:00:00 9 37 Nordeste 53 Nordeste 0 -- -- 64
2020-11-04 14:00:00 8.8 33 Nordeste 56 Nordeste 0 -- -- 65
2020-11-04 13:00:00 8.1 38 Nordeste 58 Nordeste 0 -- -- 69
2020-11-04 12:00:00 7.1 30 Nordeste 47 Nordeste 0 -- -- 73
2020-11-04 11:00:00 5.8 32 Nordeste 47 Nordeste 0 -- -- 77
2020-11-04 10:00:00 5.5 26 Nordeste 38 Nordeste 0 -- -- 80
2020-11-04 09:00:00 4.8 19 Nordeste 35 Nordeste 0 -- -- 83
2020-11-04 08:00:00 4.8 23 Nordeste 39 Nordeste 0 -- -- 82
2020-11-04 07:00:00 5 21 Nordeste 39 Nordeste 0 -- -- 83
2020-11-04 06:00:00 5 22 Nordeste 35 Nordeste 0 -- -- 83
2020-11-04 05:00:00 4.6 14 Nordeste 27 Nordeste 0 -- -- 88
2020-11-04 04:00:00 3.9 15 Nordeste 26 Nordeste 0 -- -- 90
2020-11-04 03:00:00 4.2 15 Nordeste 23 Nordeste 0 -- -- 87
2020-11-04 02:00:00 4.1 12 Nordeste 23 Este 0 -- -- 88
2020-11-04 01:00:00 4.5 15 Nordeste 26 Nordeste 0 -- -- 86
2020-11-04 00:00:00 5.5 17 Nordeste 28 Nordeste 0 -- -- 81
2020-11-03 23:00:00 6.1 18 Este 35 Nordeste 0 -- -- 82
2020-11-03 22:00:00 7.4 19 Nordeste 39 Nordeste 0 -- -- 81
2020-11-03 21:00:00 9.2 30 Nordeste 41 Nordeste 0 -- -- 73
2020-11-03 20:00:00 10.2 23 Nordeste 37 Nordeste 0 -- -- 69
2020-11-03 19:00:00 11.5 17 Nordeste 26 Nordeste 0 -- -- 68
2020-11-03 18:00:00 12.4 17 Nordeste 31 Nordeste 0 -- -- 56
2020-11-03 17:00:00 13.5 18 Este 36 Nordeste 0 -- -- 57
2020-11-03 16:00:00 13.7 20 Nordeste 37 Este 0 -- -- 56
2020-11-03 15:00:00 14 20 Nordeste 37 Nordeste 0 -- -- 56
2020-11-03 14:00:00 13.6 21 Nordeste 39 Nordeste 0 -- -- 54
2020-11-03 13:00:00 12.9 24 Nordeste 39 Nordeste 0 -- -- 57
2020-11-03 12:00:00 12.1 24 Nordeste 39 Nordeste 0 -- -- 55
2020-11-03 11:00:00 11 22 Nordeste 38 Norte 0 -- -- 59
2020-11-03 10:00:00 9.3 19 Nordeste 27 Nordeste 0 -- -- 63
2020-11-03 09:00:00 6.9 18 Nordeste 26 Nordeste 0 -- -- 67
2020-11-03 08:00:00 5.9 13 Nordeste 22 Nordeste 0 -- -- 71
2020-11-03 07:00:00 7 10 Nordeste 18 Norte 0 -- -- 74
2020-11-03 06:00:00 7.8 0 Calma -- -- 0 -- -- 91
2020-11-03 05:00:00 9 0 Calma 9 Oeste 0 -- -- 89
2020-11-03 04:00:00 9.3 6 Sudoeste 18 Oeste 0 -- -- 93
2020-11-03 03:00:00 9.5 10 Sudoeste 17 Oeste 0 -- -- 95
2020-11-03 02:00:00 10.4 13 Oeste 25 Sudoeste 0 -- -- 94
2020-11-03 01:00:00 11.4 20 Sudoeste 28 Oeste 0 -- -- 94
2020-11-03 00:00:00 13 19 Sudoeste 25 Sudoeste 0 -- -- 94
2020-11-02 23:00:00 14.1 5 Sudoeste 24 Oeste 0 -- -- 90
2020-11-02 22:00:00 14.9 21 Oeste 26 Oeste 0 -- -- 92
2020-11-02 21:00:00 15.3 13 Oeste 23 Oeste 0 -- -- 88
2020-11-02 20:00:00 15.2 11 Sudoeste 17 Oeste 0 -- -- 87
2020-11-02 19:00:00 15.1 12 Sudoeste 18 Sudoeste 0 -- -- 85
2020-11-02 18:00:00 16 10 Sudoeste 19 Sudoeste 0 -- -- 82
2020-11-02 17:00:00 17 16 Sudoeste 21 Sudoeste 0 -- -- 77
2020-11-02 16:00:00 17.3 15 Sudoeste 24 Sudoeste 0 -- -- 76
2020-11-02 15:00:00 17.3 18 Sudoeste 27 Oeste 0 -- -- 77
2020-11-02 14:00:00 17 18 Sudoeste 25 Oeste 0 -- -- 78
2020-11-02 13:00:00 16.7 19 Sudoeste 27 Sudoeste 0 -- -- 78
2020-11-02 12:00:00 15.2 18 Sudoeste 25 Oeste 0 -- -- 90
2020-11-02 11:00:00 13.7 15 Sudoeste 22 Sudoeste 0 -- -- 99
2020-11-02 10:00:00 13.2 14 Sudoeste 23 Sudoeste 0 -- -- 100
2020-11-02 09:00:00 12.6 17 Sudoeste 23 Sudoeste 0 -- -- 100
2020-11-02 08:00:00 12.2 15 Sudoeste 20 Sudoeste 0 -- -- 100
2020-11-02 07:00:00 11.8 11 Oeste 17 Sudoeste 0 -- -- 100
2020-11-02 06:00:00 12.1 12 Sudoeste 19 Sudoeste 0 -- -- 99
2020-11-02 05:00:00 11.9 10 Sudoeste 13 Sudoeste 0 -- -- 99
2020-11-02 04:00:00 12.2 13 Sudoeste 21 Sudoeste 0 -- -- 99
2020-11-02 03:00:00 12.3 15 Sudoeste 22 Sudoeste 0 -- -- 100
2020-11-02 02:00:00 12.4 17 Sudoeste 24 Oeste 0 -- -- 99
2020-11-02 01:00:00 12.5 15 Sudoeste 19 Sudoeste 0 -- -- 99
2020-11-02 00:00:00 12.3 14 Sudoeste 18 Oeste 0 -- -- 98
2020-11-01 23:00:00 13 14 Sudoeste 19 Sudoeste 0 -- -- 97
2020-11-01 22:00:00 13 12 Oeste 14 Oeste 0 -- -- 96
2020-11-01 21:00:00 13.6 10 Sudoeste 14 Sudoeste 0 -- -- 96
2020-11-01 20:00:00 13 12 Sudoeste 16 Sudoeste 0 -- -- 96
2020-11-01 19:00:00 13.7 9 Sudoeste 14 Sudoeste 0 -- -- 92
2020-11-01 18:00:00 15.1 12 Sudoeste 18 Sudoeste 0 -- -- 89
2020-11-01 17:00:00 15.4 12 Sudoeste 21 Sudoeste 0 -- -- 88
2020-11-01 16:00:00 15.4 14 Sudoeste 21 Oeste 0 -- -- 88
2020-11-01 15:00:00 15.3 14 Oeste 19 Oeste 0 -- -- 88
2020-11-01 14:00:00 15 12 Sudoeste 22 Oeste 0 -- -- 90
2020-11-01 13:00:00 14.3 16 Oeste 21 Oeste 0 -- -- 96
2020-11-01 12:00:00 12.7 10 Sudoeste 15 Oeste 0 -- -- 100
2020-11-01 11:00:00 12 8 Oeste 15 Sudoeste 0 -- -- 100
2020-11-01 10:00:00 11.3 10 Sudoeste 14 Sudoeste 0 -- -- 100
2020-11-01 09:00:00 11 10 Sudoeste 14 Sudoeste 0 -- -- 100
2020-11-01 08:00:00 10.9 9 Sudoeste 12 Sudoeste 0 -- -- 99
2020-11-01 07:00:00 10.8 7 Sudoeste 14 Sudoeste 0 -- -- 99
2020-11-01 06:00:00 10.7 8 Sudoeste 13 Sudoeste 0 -- -- 99
2020-11-01 05:00:00 10.7 7 Sudoeste 12 Sudoeste 0 -- -- 99
2020-11-01 04:00:00 10.2 8 Sudoeste 12 Sudoeste 0 -- -- 98
2020-11-01 03:00:00 10.4 10 Sudoeste 13 Sudoeste 0 -- -- 96
2020-11-01 02:00:00 11 5 Sudoeste 10 Sudoeste 0 -- -- 95
2020-11-01 01:00:00 11.2 6 Sur 10 Sur 0 -- -- 94
2020-11-01 00:00:00 11.5 5 Sudoeste 9 Oeste 0 -- -- 92
2020-10-31 23:00:00 11.9 5 Oeste 14 Oeste 0 -- -- 91
2020-10-31 22:00:00 12.8 10 Oeste 11 Oeste 0 -- -- 88
2020-10-31 21:00:00 13.4 6 Oeste 8 Oeste 0 -- -- 86
2020-10-31 20:00:00 14 5 Oeste 10 Oeste 0 -- -- 84
2020-10-31 19:00:00 14.3 9 Oeste 21 Oeste 0 -- -- 81
2020-10-31 18:00:00 15.8 16 Oeste 27 Sudoeste 0 -- -- 75
2020-10-31 17:00:00 17 21 Oeste 30 Oeste 0 -- -- 71
2020-10-31 16:00:00 17.3 22 Oeste 31 Sudoeste 0 -- -- 72
2020-10-31 15:00:00 17.2 22 Oeste 33 Oeste 0 -- -- 73
2020-10-31 14:00:00 17.4 22 Oeste 31 Oeste 0 -- -- 74
2020-10-31 13:00:00 16.5 15 Sudoeste 23 Sudoeste 0 -- -- 80
2020-10-31 12:00:00 13.6 2 Sudoeste 9 Oeste 0 -- -- 97
2020-10-31 11:00:00 11.8 5 Sudoeste 9 Sudoeste 0 -- -- 99
2020-10-31 10:00:00 10.1 5 Oeste 8 Oeste 0 -- -- 99
2020-10-31 09:00:00 8.6 4 Sudoeste 10 Oeste 0 -- -- 98
2020-10-31 08:00:00 8.5 8 Oeste 15 Oeste 0 -- -- 98
2020-10-31 07:00:00 8.8 10 Oeste 13 Oeste 0 -- -- 97
2020-10-31 06:00:00 9.2 7 Sudoeste 10 Sudoeste 0 -- -- 97
2020-10-31 05:00:00 9.1 6 Sur 9 Sudoeste 0 -- -- 95
2020-10-31 04:00:00 10 7 Oeste 12 Oeste 0 -- -- 93
2020-10-31 03:00:00 10.2 10 Oeste 14 Sudoeste 0 -- -- 92
2020-10-31 02:00:00 11 6 Sudoeste 12 Sudoeste 0 -- -- 89
2020-10-31 01:00:00 11.1 9 Sudoeste 13 Sudoeste 0 -- -- 88
2020-10-31 00:00:00 11.8 9 Sudoeste 15 Sudoeste 0 -- -- 87
2020-10-30 23:00:00 12.5 4 Sudeste 7 Este 0 -- -- 84
2020-10-30 22:00:00 13.1 5 Este 8 Este 0 -- -- 82
2020-10-30 21:00:00 13.2 6 Sudeste 9 Sudeste 0 -- -- 82
2020-10-30 20:00:00 13.8 6 Sudeste 13 Sudeste 0 -- -- 80
2020-10-30 19:00:00 14.7 12 Sudeste 14 Sudeste 0 -- -- 77
2020-10-30 18:00:00 17 11 Sudeste 13 Sudeste 0 -- -- 71
2020-10-30 17:00:00 18.1 5 Sudeste 14 Sudeste 0 -- -- 67
2020-10-30 16:00:00 17.8 5 Este 12 Este 0 -- -- 68
2020-10-30 15:00:00 17.2 4 Este 12 Este 0 -- -- 68
2020-10-30 14:00:00 15.7 9 Este 16 Sudeste 0 -- -- 72
2020-10-30 13:00:00 14.1 13 Este 17 Este 0 -- -- 79
2020-10-30 12:00:00 12 11 Este 15 Este 0 -- -- 88
2020-10-30 11:00:00 9.1 10 Este 15 Este 0 -- -- 99
2020-10-30 10:00:00 7.2 9 Este 12 Este 0 -- -- 99
2020-10-30 09:00:00 6 10 Este 14 Este 0 -- -- 99
2020-10-30 08:00:00 4.8 6 Este 13 Este 0 -- -- 98
2020-10-30 07:00:00 6 11 Este 16 Este 0 -- -- 97
2020-10-30 06:00:00 6.2 8 Sudeste 13 Este 0 -- -- 96
2020-10-30 05:00:00 6.8 8 Este 12 Este 0 -- -- 96
2020-10-30 04:00:00 7.1 8 Este 13 Este 0 -- -- 97
2020-10-30 03:00:00 6.8 7 Este 10 Nordeste 0 -- -- 96
2020-10-30 02:00:00 7.1 8 Este 9 Este 0 -- -- 96
2020-10-30 01:00:00 7.9 6 Este 12 Este 0 -- -- 94
2020-10-30 00:00:00 7.9 10 Este 12 Este 0 -- -- 94
2020-10-29 23:00:00 8.2 9 Sudeste 11 Este 0 -- -- 92
2020-10-29 22:00:00 8.6 7 Nordeste 10 Nordeste 0 -- -- 89
2020-10-29 21:00:00 9.4 9 Norte 13 Nordeste 0 -- -- 86
2020-10-29 20:00:00 10 11 Nordeste -- -- 0 -- -- 85
2020-10-29 19:00:00 11 8 Nordeste 9 Norte 0 -- -- 82
2020-10-29 18:00:00 13 5 Norte 8 Oeste 0 -- -- 76
2020-10-29 17:00:00 14.1 5 Sudoeste 14 Sur 0 -- -- 73
2020-10-29 16:00:00 13.3 4 Oeste 10 Oeste 0 -- -- 75
2020-10-29 15:00:00 12.2 4 Sudeste 12 Sudeste 0 -- -- 77
2020-10-29 14:00:00 11 11 Este 18 Sudeste 0 -- -- 82
2020-10-29 13:00:00 10.6 6 Sudeste 11 Sudeste 0 -- -- 88
2020-10-29 12:00:00 9.8 5 Este 8 Sudeste 0 -- -- 93
2020-10-29 11:00:00 8.8 4 Este 7 Sudeste 0 -- -- 97
2020-10-29 10:00:00 7.4 0 Calma 6 Este 0 -- -- 99
2020-10-29 09:00:00 6.2 0 Calma 8 Sudeste 0 -- -- 99
2020-10-29 08:00:00 5.8 7 Sudeste 10 Sudeste 0 -- -- 99
2020-10-29 07:00:00 5.4 7 Sur 8 Sudeste 0 -- -- 99
2020-10-29 06:00:00 6.2 0 Calma 5 Sudeste 0 -- -- 98
2020-10-29 05:00:00 6.7 4 Oeste 5 Oeste 0 -- -- 97
2020-10-29 04:00:00 6.7 3 Sudoeste 6 Sur 0 -- -- 96
2020-10-29 03:00:00 6.8 5 Sur 8 Sudoeste 0 -- -- 95
2020-10-29 02:00:00 7.3 5 Sudoeste 10 Oeste 0 -- -- 94
2020-10-29 01:00:00 7.5 9 Oeste 12 Sudoeste 0 -- -- 93
2020-10-29 00:00:00 7.8 7 Sudoeste 12 Oeste 0 -- -- 92
2020-10-28 23:00:00 8.4 11 Oeste 12 Oeste 0 -- -- 92
2020-10-28 22:00:00 9.1 9 Oeste 14 Oeste 0 -- -- 92
2020-10-28 21:00:00 9.5 8 Sudoeste 13 Oeste 0 -- -- 91
2020-10-28 20:00:00 10.4 10 Oeste 12 Oeste 0 -- -- 88
2020-10-28 19:00:00 10.6 9 Oeste 24 Oeste 0 -- -- 86
2020-10-28 18:00:00 12.8 18 Oeste 28 Oeste 0 -- -- 78
2020-10-28 17:00:00 13.2 18 Oeste 32 Oeste 0 -- -- 78
2020-10-28 16:00:00 13.6 26 Oeste 36 Oeste 0 -- -- 77
2020-10-28 15:00:00 14.2 24 Oeste 35 Oeste 0 -- -- 82
2020-10-28 14:00:00 13.2 21 Oeste 29 Oeste 0 -- -- 88
2020-10-28 13:00:00 12.2 13 Oeste 24 Oeste 0 -- -- 96
2020-10-28 12:00:00 12 17 Oeste 25 Sudoeste 0 -- -- 96
2020-10-28 11:00:00 11.6 15 Sudoeste 22 Sudoeste 0 -- -- 99
2020-10-28 10:00:00 11.1 11 Sudoeste 20 Sudoeste 0 -- -- 100
2020-10-28 09:00:00 10.9 15 Sudoeste 24 Sudoeste 0.2 -- -- 100
2020-10-28 08:00:00 10.9 15 Sudoeste 27 Sudoeste 0 -- -- 100
2020-10-28 07:00:00 10.8 18 Sudoeste 23 Sudoeste 0 -- -- 100
2020-10-28 06:00:00 10.9 18 Sudoeste 26 Sudoeste 0 -- -- 100
2020-10-28 05:00:00 10.9 19 Sudoeste 39 Sudoeste 0 -- -- 99
2020-10-28 04:00:00 11 25 Sudoeste 34 Sudoeste 0.2 -- -- 99
2020-10-28 03:00:00 10.8 25 Sudoeste 34 Sudoeste 0.4 -- -- 99
2020-10-28 02:00:00 10.6 26 Sudoeste 34 Sudoeste 0.4 -- -- 99
2020-10-28 01:00:00 10.4 21 Sudoeste 39 Sudoeste 0.4 -- -- 99
2020-10-28 00:00:00 10.3 24 Sudoeste 37 Sudoeste 0 -- -- 99
2020-10-27 23:00:00 10.1 23 Sudoeste 34 Sudoeste 0 -- -- 98
2020-10-27 22:00:00 10.1 25 Sudoeste 38 Sudoeste 0.2 -- -- 98
2020-10-27 21:00:00 10.1 28 Sudoeste 46 Sudoeste 0 -- -- 97
2020-10-27 20:00:00 10.2 30 Sudoeste 41 Sudoeste 0 -- -- 96
2020-10-27 19:00:00 10 24 Sudoeste 41 Sudoeste 0 -- -- 96
2020-10-27 18:00:00 10 29 Sudoeste 41 Sudoeste 0 -- -- 96
2020-10-27 17:00:00 10 25 Sudoeste 35 Sudoeste 0.2 -- -- 95
2020-10-27 16:00:00 10.3 27 Sudoeste 37 Sudoeste 0 -- -- 91
2020-10-27 15:00:00 10.2 25 Sudoeste 38 Sudoeste 0 -- -- 89
2020-10-27 14:00:00 10.9 27 Sudoeste 38 Sudoeste 0 -- -- 83
2020-10-27 13:00:00 11.1 29 Sudoeste 44 Oeste 0 -- -- 83
2020-10-27 12:00:00 10 26 Sudoeste 36 Sudoeste 0 -- -- 88
2020-10-27 11:00:00 8.8 28 Sudoeste 38 Sudoeste 0 -- -- 92
2020-10-27 10:00:00 7.6 24 Sudoeste 33 Sudoeste 0 -- -- 97
2020-10-27 09:00:00 7.3 24 Sudoeste 33 Sudoeste 0 -- -- 98
2020-10-27 08:00:00 6.7 21 Sudoeste 32 Sudoeste 0 -- -- 98
2020-10-27 07:00:00 6.5 22 Sudoeste 30 Sudoeste 0 -- -- 98
2020-10-27 06:00:00 6.1 21 Sudoeste 29 Sudoeste 0 -- -- 98
2020-10-27 05:00:00 6.1 19 Sudoeste 27 Sudoeste 0 -- -- 96
2020-10-27 04:00:00 6 19 Sudoeste 27 Sudoeste 0 -- -- 96
2020-10-27 03:00:00 5.9 18 Sudoeste 27 Sudoeste 0 -- -- 96
2020-10-27 02:00:00 6 19 Sudoeste 27 Sudoeste 0 -- -- 96
2020-10-27 01:00:00 5.9 15 Sudoeste 25 Sudoeste 0 -- -- 95
2020-10-27 00:00:00 5.8 12 Sudoeste 19 Sudoeste 0 -- -- 96